Airfield :
LOGIN :

Register | Disclaimer

   EN    FR    IT 

 










Legend :    VFR   Marginal VFR   IFR   Intensive IFR   Very Intensive IFR
Visi :
Ceiling :
>= 8 km
>= 3000ft
5 to 8 km
1000 to 3000 ft
1500m to 5 km
500 to 1000 ft
800 to 1500m
200 to 500 ft
< 800m
< 200 ft
Symbols :   Thunderstorms  Fog  Heavy snow  Heavy precipitations  Wind > 20 kt
SIGMETs :     Misc.  Thunderstorms  Icing  Turbulence  Mountain Waves  Volcanic Ashes






- Airport Elevation : 1367 ft
- IATA code : FDH


EDNY - Friedrichshafen

CURRENT METAR :
  • 220020Z AUTO 00000KT 9999 SCT019/// BKN042/// OVC048/// 02/02 Q1019

EXPIRED METARs :
  • 212350Z AUTO 00000KT 9999 FEW014/// SCT017/// OVC047/// 02/02 Q1019
  • 212320Z AUTO 00000KT 9999 BKN018/// OVC054/// 02/02 Q1019
  • 212250Z AUTO 00000KT 9999 OVC020/// 02/02 Q1019
  • 212220Z AUTO VRB01KT 9999 SCT021/// BKN027/// OVC056/// 02/02 Q1020
  • 212150Z AUTO VRB02KT 9999 BKN025/// BKN029/// OVC038/// 02/02 Q1020
  • 212120Z AUTO 07001KT 9999 FEW022/// BKN026/// OVC035/// 02/02 Q1020
  • 212050Z AUTO VRB02KT 9999 FEW021/// SCT031/// OVC086/// 02/02 Q1020
  • 212020Z AUTO VRB01KT 9999 FEW032/// BKN066/// OVC083/// 02/02 Q1020
  • 211950Z AUTO VRB02KT 9999 FEW031/// OVC063/// 02/02 Q1020

TAF TAF EDNY
Valid from the 22 at 00:00 until the 23 at 00:00 UTC


212300Z 2200/2224 VRB03KT 9999 BKN020
BECMG 2200/2202 BKN012
TEMPO 2200/2207 3000 SNRA OVC007
BECMG 2204/2206 03010KT
BECMG 2207/2209 BKN025
BECMG 2216/2218 03005KT



MET'MAP, your aeronautical weather chart ! - Copyright ORBIFLY December 2007 - Disclaimer

ORBIFLY MET'MAP TEAM :

Programming & Development : Alexandra Zaïnal
Original concept : Baudouin d'Aumeries
Technical & hardware support : Manuel Goepfert
Assistance : Marc-Olivier Méhu




SOURCES & CREDITS :

   NOAA